Time;durP1;ratioP1;P1;durP2;ratioP2;P2;SDS_P1;SDS_P2;PMS_P1;PMS_P2;Temp;Humidity;BMP_temperature;BMP_pressure;BME280_temperature;BME280_humidity;BME280_pressure;Samples;Min_cycle;Max_cycle;Signal;HPM_P1;HPM_P2
2022/10/05 00:01:20;;;;;;;3.70;3.40;;;22.30;66.30;;;;;;4903892;29;20445;-76
2022/10/05 00:03:48;;;;;;;6.43;4.27;;;22.30;66.30;;;;;;4916859;29;20947;-76
2022/10/05 00:06:17;;;;;;;3.47;3.17;;;22.30;66.30;;;;;;4915968;29;20484;-76
2022/10/05 00:08:45;;;;;;;2.90;2.80;;;22.30;66.30;;;;;;4916498;29;20450;-76
2022/10/05 00:11:16;;;;;;;3.30;3.10;;;22.30;66.30;;;;;;4916851;29;20462;-76
2022/10/05 00:13:45;;;;;;;3.60;3.30;;;22.30;66.30;;;;;;4917523;29;20438;-76
2022/10/05 00:16:17;;;;;;;4.00;3.60;;;22.30;66.30;;;;;;4916994;29;20440;-76
2022/10/05 00:18:48;;;;;;;3.67;3.37;;;22.30;66.30;;;;;;4916912;29;20465;-76
2022/10/05 00:21:22;;;;;;;3.30;3.00;;;22.30;66.20;;;;;;4916752;29;20434;-76
2022/10/05 00:23:51;;;;;;;2.87;2.67;;;22.30;66.30;;;;;;4910778;29;20469;-76
2022/10/05 00:26:23;;;;;;;3.30;3.10;;;22.30;66.30;;;;;;4915888;29;20826;-76
2022/10/05 00:28:53;;;;;;;3.20;3.00;;;22.30;66.30;;;;;;4912023;29;20465;-76
2022/10/05 00:31:23;;;;;;;3.67;3.47;;;22.30;66.20;;;;;;4910335;29;20456;-76
2022/10/05 00:33:53;;;;;;;3.70;3.40;;;22.30;66.20;;;;;;4916141;29;20449;-76
2022/10/05 00:36:22;;;;;;;3.73;3.43;;;22.30;66.20;;;;;;4916889;29;20842;-76
2022/10/05 00:38:50;;;;;;;3.77;3.47;;;22.30;66.20;;;;;;4915374;29;20454;-76
2022/10/05 00:41:23;;;;;;;3.07;2.83;;;22.30;66.20;;;;;;4915206;29;20449;-76
2022/10/05 00:44:08;;;;;;;3.20;3.00;;;22.30;66.20;;;;;;4916338;29;20461;-76
2022/10/05 00:46:46;;;;;;;3.23;3.00;;;22.20;66.20;;;;;;4931276;29;20472;-76
2022/10/05 00:49:29;;;;;;;3.53;3.23;;;22.20;66.20;;;;;;4916244;29;20441;-76
2022/10/05 00:52:08;;;;;;;3.50;3.27;;;22.20;66.20;;;;;;4915305;29;20472;-76
2022/10/05 00:54:42;;;;;;;3.00;2.80;;;22.20;66.20;;;;;;4914809;29;20948;-75
2022/10/05 00:57:36;;;;;;;3.47;3.27;;;22.20;66.20;;;;;;4928474;29;20460;-76
2022/10/05 01:00:07;;;;;;;3.67;3.37;;;22.20;66.20;;;;;;4927428;29;20479;-76
2022/10/05 01:02:52;;;;;;;3.23;3.03;;;22.20;66.20;;;;;;4916030;29;20460;-76
2022/10/05 01:05:43;;;;;;;5.03;3.80;;;22.20;66.20;;;;;;4913286;29;20465;-76
2022/10/05 01:08:23;;;;;;;3.03;2.83;;;22.20;66.20;;;;;;4896422;29;20918;-76
2022/10/05 01:11:02;;;;;;;4.20;3.80;;;22.20;66.20;;;;;;4929183;29;20533;-76
2022/10/05 01:13:35;;;;;;;3.23;3.03;;;22.20;66.10;;;;;;4914766;29;20464;-76
2022/10/05 01:16:10;;;;;;;3.80;3.50;;;22.20;66.10;;;;;;4916052;29;20486;-76
2022/10/05 01:18:45;;;;;;;3.20;3.00;;;22.20;66.10;;;;;;4903089;29;20500;-76
2022/10/05 01:21:19;;;;;;;3.70;3.40;;;22.20;66.10;;;;;;4916239;29;20453;-76
2022/10/05 01:24:28;;;;;;;3.43;3.20;;;22.20;66.10;;;;;;4914067;29;20462;-76
2022/10/05 01:27:18;;;;;;;4.13;3.80;;;22.20;66.10;;;;;;4897154;29;20479;-76
2022/10/05 01:29:54;;;;;;;3.33;3.13;;;22.20;66.10;;;;;;4876303;29;20448;-76
2022/10/05 01:32:29;;;;;;;4.23;3.90;;;22.10;66.10;;;;;;4897400;29;20444;-76
2022/10/05 01:35:08;;;;;;;3.67;3.37;;;22.20;66.00;;;;;;4913944;29;20463;-76
2022/10/05 01:37:48;;;;;;;4.07;3.67;;;22.10;66.00;;;;;;4916208;29;20580;-75
2022/10/05 01:40:23;;;;;;;3.30;3.10;;;22.10;66.00;;;;;;4915578;29;20880;-76
2022/10/05 01:43:02;;;;;;;3.53;3.23;;;22.10;66.00;;;;;;4917061;29;20451;-76
2022/10/05 01:45:43;;;;;;;3.30;3.10;;;22.10;66.00;;;;;;4919978;29;20433;-76
2022/10/05 01:48:18;;;;;;;3.33;3.13;;;22.10;66.00;;;;;;4918026;29;20488;-76
2022/10/05 01:50:56;;;;;;;3.57;3.27;;;22.10;66.00;;;;;;4919650;29;20433;-76
2022/10/05 01:53:36;;;;;;;4.00;3.70;;;22.10;66.00;;;;;;4919128;29;20460;-76
2022/10/05 01:56:12;;;;;;;5.20;4.20;;;22.10;66.00;;;;;;4918719;29;20447;-76
2022/10/05 01:58:50;;;;;;;3.83;3.43;;;22.10;65.70;;;;;;4913708;29;20497;-76
2022/10/05 02:01:29;;;;;;;3.70;3.40;;;22.10;65.90;;;;;;4920352;29;20968;-77
2022/10/05 02:04:05;;;;;;;4.20;3.90;;;22.10;66.00;;;;;;4917513;29;20492;-76
2022/10/05 02:06:40;;;;;;;3.40;3.13;;;22.10;65.90;;;;;;4910577;29;20471;-76
2022/10/05 02:09:14;;;;;;;3.07;2.87;;;22.10;65.90;;;;;;4919254;29;20499;-75
2022/10/05 02:11:47;;;;;;;3.70;3.40;;;22.10;65.90;;;;;;4916504;29;20460;-76
2022/10/05 02:14:21;;;;;;;3.50;3.20;;;22.10;65.90;;;;;;4919362;29;20443;-76
2022/10/05 02:16:54;;;;;;;3.80;3.50;;;22.00;65.90;;;;;;4917194;29;20467;-76
2022/10/05 02:19:25;;;;;;;3.60;3.30;;;22.00;65.90;;;;;;4917650;29;20479;-76
2022/10/05 02:21:59;;;;;;;4.00;3.70;;;22.00;65.90;;;;;;4918199;29;20593;-76
2022/10/05 02:24:32;;;;;;;3.47;3.17;;;22.00;65.90;;;;;;4918798;29;20977;-76
2022/10/05 02:27:02;;;;;;;3.47;3.17;;;22.00;65.90;;;;;;4918623;29;20476;-76
2022/10/05 02:29:34;;;;;;;3.77;3.53;;;22.00;65.90;;;;;;4917822;29;20468;-76
2022/10/05 02:32:07;;;;;;;3.80;3.50;;;22.00;65.90;;;;;;4917539;29;20757;-76
2022/10/05 02:34:38;;;;;;;3.83;3.60;;;22.00;65.90;;;;;;4918118;29;20463;-76
2022/10/05 02:37:24;;;;;;;3.87;3.57;;;22.00;65.90;;;;;;4917684;29;20467;-76
2022/10/05 02:40:16;;;;;;;3.77;3.57;;;22.00;65.90;;;;;;4913602;29;20471;-76
2022/10/05 02:42:54;;;;;;;6.07;3.47;;;22.00;65.90;;;;;;4900231;29;20552;-76
2022/10/05 02:45:29;;;;;;;3.60;3.40;;;22.00;65.90;;;;;;4915975;29;20552;-76
2022/10/05 02:48:09;;;;;;;3.60;3.30;;;22.00;65.90;;;;;;4917005;29;20484;-76
2022/10/05 02:50:44;;;;;;;3.73;3.43;;;22.00;65.90;;;;;;4918771;29;20484;-76
2022/10/05 02:53:23;;;;;;;3.67;3.37;;;22.00;65.90;;;;;;4918161;29;20523;-76
2022/10/05 02:56:01;;;;;;;3.43;2.97;;;22.00;65.90;;;;;;4915746;29;20564;-76
2022/10/05 02:58:38;;;;;;;3.70;3.40;;;22.00;65.90;;;;;;4917217;29;20460;-76
2022/10/05 03:01:15;;;;;;;3.73;3.43;;;22.00;65.90;;;;;;4917793;29;20909;-76
2022/10/05 03:03:52;;;;;;;3.90;3.60;;;22.00;65.90;;;;;;4918311;29;20940;-76
2022/10/05 03:06:25;;;;;;;2.90;2.70;;;22.00;65.90;;;;;;4918301;29;20459;-76
2022/10/05 03:09:02;;;;;;;3.37;3.13;;;22.00;65.90;;;;;;4919363;29;20473;-76
2022/10/05 03:11:40;;;;;;;3.57;3.30;;;21.90;65.90;;;;;;4917930;29;20826;-76
2022/10/05 03:14:14;;;;;;;3.60;3.30;;;22.00;65.90;;;;;;4916157;29;20467;-76
2022/10/05 03:16:53;;;;;;;3.37;3.07;;;22.00;65.90;;;;;;4916554;29;20551;-75
2022/10/05 03:19:50;;;;;;;3.90;3.53;;;22.00;65.90;;;;;;4918030;29;20479;-75
2022/10/05 03:22:33;;;;;;;4.17;3.87;;;22.00;65.90;;;;;;4916414;29;20476;-75
2022/10/05 03:25:20;;;;;;;3.00;2.80;;;21.90;65.90;;;;;;4916365;29;20513;-75
2022/10/05 03:27:55;;;;;;;3.03;2.83;;;21.90;65.90;;;;;;4916959;29;20493;-75
2022/10/05 03:30:25;;;;;;;2.93;2.73;;;21.90;65.90;;;;;;4916747;29;20471;-75
2022/10/05 03:33:02;;;;;;;3.60;3.40;;;21.90;65.90;;;;;;4916562;29;20516;-76
2022/10/05 03:35:35;;;;;;;3.37;3.07;;;21.90;65.90;;;;;;4932723;29;20563;-76
2022/10/05 03:38:12;;;;;;;3.90;3.60;;;21.90;65.90;;;;;;4916185;29;20468;-76
2022/10/05 03:40:47;;;;;;;3.87;3.57;;;21.90;65.90;;;;;;4915747;29;20558;-76
2022/10/05 03:43:46;;;;;;;3.00;2.80;;;21.90;65.90;;;;;;4931462;29;20460;-76
2022/10/05 03:46:20;;;;;;;3.07;2.90;;;21.90;65.90;;;;;;4931215;29;20460;-76
2022/10/05 03:48:53;;;;;;;3.43;2.70;;;21.90;65.90;;;;;;4932212;29;20551;-76
2022/10/05 03:51:29;;;;;;;2.90;2.70;;;21.90;65.90;;;;;;4932444;29;20464;-76
2022/10/05 03:54:03;;;;;;;3.53;3.23;;;21.90;65.90;;;;;;4917399;29;20507;-76
2022/10/05 03:56:36;;;;;;;3.40;3.20;;;21.90;65.90;;;;;;4915683;29;20513;-76
2022/10/05 03:59:10;;;;;;;2.80;2.70;;;21.90;65.90;;;;;;4911872;29;20469;-76
2022/10/05 04:01:43;;;;;;;3.63;3.33;;;21.90;65.90;;;;;;4910238;29;20975;-76
2022/10/05 04:04:19;;;;;;;3.17;2.97;;;21.90;65.80;;;;;;4916831;29;20496;-76
2022/10/05 04:06:50;;;;;;;3.17;2.97;;;21.90;65.80;;;;;;4913164;29;20462;-76
2022/10/05 04:09:24;;;;;;;3.30;2.60;;;21.90;65.80;;;;;;4910821;29;20484;-76
2022/10/05 04:11:57;;;;;;;3.10;2.90;;;21.80;65.80;;;;;;4931010;29;20514;-76
2022/10/05 04:14:32;;;;;;;3.20;2.80;;;21.90;65.80;;;;;;4916691;29;20448;-76
2022/10/05 04:17:05;;;;;;;2.97;2.77;;;21.80;65.80;;;;;;4927303;29;20465;-77
2022/10/05 04:19:40;;;;;;;3.13;2.80;;;21.80;65.80;;;;;;4912692;29;21036;-78
2022/10/05 04:22:14;;;;;;;3.00;2.80;;;21.80;65.80;;;;;;4912720;29;20461;-78
2022/10/05 04:24:49;;;;;;;3.07;2.87;;;21.80;65.70;;;;;;4914199;29;20847;-78
2022/10/05 04:27:21;;;;;;;3.07;2.87;;;21.80;65.80;;;;;;4928571;29;20468;-80
2022/10/05 04:29:57;;;;;;;3.53;3.23;;;21.80;65.70;;;;;;4925270;29;20828;-78
2022/10/05 04:32:31;;;;;;;3.03;2.73;;;21.80;65.80;;;;;;4928598;29;20489;-79
2022/10/05 04:35:37;;;;;;;3.90;3.60;;;21.80;65.90;;;;;;4925107;29;20468;-78
2022/10/05 04:38:20;;;;;;;3.80;3.50;;;21.80;65.80;;;;;;4880302;29;20460;-76
2022/10/05 04:41:01;;;;;;;3.43;3.23;;;21.80;65.80;;;;;;4910223;29;20472;-76
2022/10/05 04:43:40;;;;;;;3.20;3.00;;;21.80;65.80;;;;;;4926567;29;20479;-76
2022/10/05 04:46:24;;;;;;;2.97;2.77;;;21.80;66.00;;;;;;4916394;29;21029;-76
2022/10/05 04:49:18;;;;;;;3.30;3.00;;;21.80;66.00;;;;;;4906658;29;20474;-78
2022/10/05 04:51:58;;;;;;;3.30;3.10;;;21.80;66.10;;;;;;4903645;29;20470;-76
2022/10/05 04:54:42;;;;;;;4.37;3.10;;;21.80;66.10;;;;;;4911776;29;20463;-77
2022/10/05 04:57:16;;;;;;;2.87;2.67;;;21.80;66.20;;;;;;4921229;29;21071;-76
2022/10/05 05:00:12;;;;;;;3.43;3.13;;;21.80;66.20;;;;;;4924450;29;20870;-77
2022/10/05 05:02:55;;;;;;;3.43;3.23;;;21.80;66.30;;;;;;4903987;29;20819;-76
2022/10/05 05:05:34;;;;;;;3.10;2.90;;;21.80;66.40;;;;;;4922055;29;20559;-75
2022/10/05 05:08:16;;;;;;;3.17;2.87;;;21.80;66.40;;;;;;4922012;29;20479;-76
2022/10/05 05:10:58;;;;;;;3.00;2.80;;;21.80;66.40;;;;;;4919720;29;20973;-76
2022/10/05 05:13:56;;;;;;;3.30;2.83;;;21.80;66.50;;;;;;4925569;29;20535;-76
2022/10/05 05:16:32;;;;;;;2.70;2.50;;;21.80;66.50;;;;;;4908787;29;20468;-75
2022/10/05 05:19:22;;;;;;;4.40;3.20;;;21.80;66.50;;;;;;4927300;29;20495;-75
2022/10/05 05:22:00;;;;;;;3.40;3.03;;;21.80;66.60;;;;;;4915703;29;20803;-75
2022/10/05 05:24:43;;;;;;;4.03;2.77;;;21.70;66.70;;;;;;4929143;29;20531;-76
2022/10/05 05:27:46;;;;;;;3.60;3.30;;;21.70;66.80;;;;;;4913786;29;20479;-76
2022/10/05 05:30:22;;;;;;;3.10;2.90;;;21.70;66.80;;;;;;4887176;29;20491;-75
2022/10/05 05:33:07;;;;;;;2.60;2.40;;;21.70;66.80;;;;;;4924341;29;20452;-74
2022/10/05 05:36:14;;;;;;;2.73;2.53;;;21.70;66.80;;;;;;4904627;29;20548;-76
2022/10/05 05:38:58;;;;;;;4.97;3.30;;;21.70;66.70;;;;;;4916368;29;20563;-76
2022/10/05 05:41:36;;;;;;;3.37;3.07;;;21.70;66.70;;;;;;4910570;29;20471;-76
2022/10/05 05:44:17;;;;;;;3.30;2.40;;;21.70;66.60;;;;;;4920621;29;20460;-76
2022/10/05 05:46:53;;;;;;;3.70;3.27;;;21.70;66.60;;;;;;4905548;29;20461;-76
2022/10/05 05:49:51;;;;;;;2.83;2.63;;;21.70;66.60;;;;;;4923889;29;21326;-76
2022/10/05 05:52:24;;;;;;;2.60;2.47;;;21.70;66.50;;;;;;4925721;29;20499;-77
2022/10/05 05:54:57;;;;;;;2.67;2.50;;;21.70;66.60;;;;;;4903439;29;20456;-77
2022/10/05 05:57:30;;;;;;;3.47;3.03;;;21.70;66.60;;;;;;4919689;29;20456;-76
2022/10/05 06:00:06;;;;;;;3.03;2.70;;;21.70;66.40;;;;;;4917826;29;21009;-76
2022/10/05 06:02:50;;;;;;;3.37;2.97;;;21.70;66.40;;;;;;4907958;29;20463;-76
2022/10/05 06:05:29;;;;;;;6.20;2.60;;;21.70;66.50;;;;;;4907333;29;21027;-76
2022/10/05 06:08:08;;;;;;;3.63;2.63;;;21.70;66.50;;;;;;4915196;29;20971;-76
2022/10/05 06:10:43;;;;;;;3.27;3.00;;;21.70;66.50;;;;;;4916979;29;20462;-76
2022/10/05 06:13:17;;;;;;;3.30;3.00;;;21.70;66.60;;;;;;4916967;29;20467;-76
2022/10/05 06:15:53;;;;;;;3.10;2.23;;;21.70;66.50;;;;;;4928350;29;20955;-76
2022/10/05 06:18:22;;;;;;;3.00;2.60;;;21.70;66.50;;;;;;4929516;29;20488;-76
2022/10/05 06:20:57;;;;;;;2.40;2.20;;;21.70;66.50;;;;;;4930953;29;20452;-76
2022/10/05 06:23:33;;;;;;;2.63;2.40;;;21.70;66.50;;;;;;4932723;29;20488;-76
2022/10/05 06:26:20;;;;;;;3.67;2.97;;;21.70;66.50;;;;;;4930117;29;20957;-77
2022/10/05 06:28:53;;;;;;;3.10;2.57;;;21.70;66.50;;;;;;4915210;29;20903;-76
2022/10/05 06:31:35;;;;;;;3.13;2.83;;;21.70;66.50;;;;;;4916585;29;20805;-76
2022/10/05 06:34:19;;;;;;;4.13;2.60;;;21.70;66.40;;;;;;4930694;29;20944;-76
2022/10/05 06:36:50;;;;;;;4.20;2.87;;;21.70;66.40;;;;;;4932865;29;20460;-76
2022/10/05 06:39:37;;;;;;;3.20;2.40;;;21.70;66.40;;;;;;4924972;29;20464;-76
2022/10/05 06:42:18;;;;;;;2.90;2.60;;;21.70;66.40;;;;;;4927074;29;20481;-77
2022/10/05 06:45:07;;;;;;;3.50;2.80;;;21.70;66.40;;;;;;4909700;29;20552;-76
2022/10/05 06:47:59;;;;;;;2.93;2.00;;;21.70;66.40;;;;;;4914393;29;20809;-76
2022/10/05 06:51:17;;;;;;;3.33;3.03;;;21.70;66.40;;;;;;4912246;29;20464;-76
2022/10/05 06:54:31;;;;;;;3.60;3.00;;;21.70;66.40;;;;;;4907554;29;20476;-76
2022/10/05 06:57:10;;;;;;;4.03;2.97;;;21.70;66.40;;;;;;4924786;29;20484;-76
2022/10/05 06:59:47;;;;;;;2.87;2.67;;;21.70;66.40;;;;;;4915594;29;20528;-76
2022/10/05 07:02:25;;;;;;;5.13;2.97;;;21.70;66.40;;;;;;4927516;29;20477;-76
2022/10/05 07:05:11;;;;;;;4.20;3.10;;;21.70;66.30;;;;;;4929575;29;20848;-76
2022/10/05 07:07:50;;;;;;;3.30;3.10;;;21.70;66.30;;;;;;4915976;29;21058;-77
2022/10/05 07:10:28;;;;;;;3.27;2.43;;;21.70;66.30;;;;;;4927887;29;20495;-76
2022/10/05 07:13:12;;;;;;;2.80;2.33;;;21.70;66.30;;;;;;4926460;29;20461;-76
2022/10/05 07:15:48;;;;;;;3.57;2.70;;;21.70;66.30;;;;;;4919997;29;20535;-76
2022/10/05 07:18:37;;;;;;;3.10;2.80;;;21.80;66.20;;;;;;4905892;29;20486;-76
2022/10/05 07:21:15;;;;;;;3.17;2.77;;;21.80;66.10;;;;;;4911889;29;20501;-76
2022/10/05 07:23:52;;;;;;;2.63;2.20;;;21.80;66.20;;;;;;4906328;29;20465;-76
2022/10/05 07:26:27;;;;;;;3.43;3.13;;;21.80;66.20;;;;;;4904767;29;20999;-76
2022/10/05 07:29:18;;;;;;;2.40;2.20;;;21.80;66.10;;;;;;4912196;29;20469;-76
2022/10/05 07:31:54;;;;;;;4.00;2.90;;;21.80;66.20;;;;;;4920935;29;21045;-76
2022/10/05 07:34:33;;;;;;;2.80;2.60;;;21.80;66.50;;;;;;4920981;29;20466;-75
2022/10/05 07:40:00;;;;;;;2.97;2.53;;;21.80;66.90;;;;;;4894190;29;20533;-76
2022/10/05 07:42:42;;;;;;;4.03;3.00;;;21.80;66.90;;;;;;4932182;29;20820;-73
2022/10/05 07:45:26;;;;;;;3.03;2.27;;;21.90;66.90;;;;;;4920197;29;20457;-73
2022/10/05 07:47:58;;;;;;;2.60;2.40;;;21.90;67.00;;;;;;4912858;29;20461;-74
2022/10/05 07:50:33;;;;;;;3.57;2.70;;;22.00;67.00;;;;;;4914889;29;20473;-73
2022/10/05 07:53:11;;;;;;;4.57;3.13;;;22.00;66.90;;;;;;4916027;29;20456;-77
2022/10/05 07:55:44;;;;;;;2.83;2.60;;;22.00;66.90;;;;;;4917913;29;20476;-75
2022/10/05 07:58:21;;;;;;;2.70;2.50;;;22.00;66.80;;;;;;4915812;29;20471;-75
2022/10/05 08:01:00;;;;;;;6.60;2.57;;;22.10;66.90;;;;;;4911214;29;20450;-75
2022/10/05 08:03:42;;;;;;;2.47;2.27;;;22.10;66.90;;;;;;4929831;29;20535;-75
2022/10/05 08:06:28;;;;;;;4.00;2.50;;;22.10;66.80;;;;;;4915951;29;20896;-75
2022/10/05 08:09:04;;;;;;;2.67;2.47;;;22.10;66.80;;;;;;4908291;29;20458;-76
2022/10/05 08:11:39;;;;;;;2.70;2.50;;;22.20;66.80;;;;;;4913478;29;20487;-75
2022/10/05 08:14:15;;;;;;;2.87;2.57;;;22.20;66.80;;;;;;4915753;29;20439;-75
2022/10/05 08:16:45;;;;;;;2.47;2.27;;;22.20;66.80;;;;;;4916188;29;20460;-75
2022/10/05 08:19:20;;;;;;;4.47;2.40;;;22.20;66.70;;;;;;4916491;29;20481;-75
2022/10/05 08:21:54;;;;;;;2.60;2.40;;;22.20;66.70;;;;;;4903439;29;21932;-75
2022/10/05 08:24:38;;;;;;;4.60;2.70;;;22.20;66.70;;;;;;4916392;29;20464;-77
2022/10/05 08:27:13;;;;;;;4.20;3.03;;;22.30;66.70;;;;;;4911319;29;20461;-76
2022/10/05 08:29:50;;;;;;;3.73;2.20;;;22.30;66.70;;;;;;4916462;29;20481;-77
2022/10/05 08:32:24;;;;;;;3.33;3.03;;;22.30;66.60;;;;;;4917165;29;20806;-77
2022/10/05 08:34:59;;;;;;;4.37;2.50;;;22.30;66.70;;;;;;4903577;29;20797;-76
2022/10/05 08:37:31;;;;;;;3.00;2.70;;;22.40;66.60;;;;;;4916702;29;20448;-76
2022/10/05 08:40:31;;;;;;;2.87;2.67;;;22.40;66.50;;;;;;4915322;29;20461;-75
2022/10/05 08:43:13;;;;;;;3.10;2.80;;;22.40;66.50;;;;;;4916590;29;20456;-76
2022/10/05 08:46:09;;;;;;;2.80;2.60;;;22.40;66.50;;;;;;4912050;29;20539;-76
2022/10/05 08:49:09;;;;;;;3.10;2.80;;;22.40;66.60;;;;;;4914058;29;20479;-75
2022/10/05 08:52:06;;;;;;;2.70;2.50;;;22.40;66.40;;;;;;4907511;29;20470;-75
2022/10/05 08:55:14;;;;;;;3.30;2.50;;;22.40;66.40;;;;;;4893283;29;20471;-75
2022/10/05 08:58:20;;;;;;;2.70;2.60;;;22.40;66.40;;;;;;4910610;29;20457;-75
2022/10/05 09:00:55;;;;;;;3.20;2.90;;;22.40;66.50;;;;;;4904074;29;20451;-74
2022/10/05 09:04:08;;;;;;;3.00;2.70;;;22.40;66.40;;;;;;4906516;29;20481;-75
2022/10/05 09:07:03;;;;;;;2.80;2.60;;;22.50;66.40;;;;;;4896018;29;20461;-75
2022/10/05 09:09:46;;;;;;;2.83;2.63;;;22.50;66.40;;;;;;4928936;29;20458;-76
2022/10/05 09:12:44;;;;;;;3.10;2.80;;;22.50;66.40;;;;;;4915054;29;20484;-76
2022/10/05 09:15:43;;;;;;;5.30;2.47;;;22.50;66.40;;;;;;4905207;29;20453;-75
2022/10/05 09:18:49;;;;;;;2.50;2.23;;;22.50;66.40;;;;;;4906418;29;20473;-75
2022/10/05 09:21:31;;;;;;;4.07;3.67;;;22.50;66.40;;;;;;4915886;29;20441;-75
2022/10/05 09:24:22;;;;;;;2.70;2.50;;;22.50;66.40;;;;;;4915649;29;20469;-74
2022/10/05 09:27:00;;;;;;;2.63;2.43;;;22.60;66.40;;;;;;4913269;29;20461;-74
2022/10/05 09:30:07;;;;;;;2.87;2.67;;;22.60;66.40;;;;;;4916312;29;20943;-76
2022/10/05 09:33:28;;;;;;;2.97;2.77;;;22.60;66.40;;;;;;4914677;29;20468;-76
2022/10/05 09:36:48;;;;;;;2.37;2.17;;;22.60;66.40;;;;;;4910920;29;20461;-78
2022/10/05 09:39:37;;;;;;;2.47;2.37;;;22.60;66.50;;;;;;4913795;29;20469;-78
2022/10/05 09:42:36;;;;;;;2.90;2.37;;;22.70;66.40;;;;;;4903343;29;20471;-77
2022/10/05 09:45:26;;;;;;;3.77;2.63;;;22.70;66.40;;;;;;4909612;29;20464;-77
2022/10/05 09:48:32;;;;;;;5.13;2.60;;;22.70;66.40;;;;;;4911456;29;20458;-77
2022/10/05 09:51:23;;;;;;;3.40;2.00;;;22.70;66.30;;;;;;4914211;29;20501;-77
2022/10/05 09:54:24;;;;;;;2.90;2.43;;;22.80;66.30;;;;;;4915355;29;20476;-79
2022/10/05 09:57:22;;;;;;;3.70;2.93;;;22.80;66.30;;;;;;4915514;29;20456;-78
2022/10/05 10:00:27;;;;;;;2.53;2.33;;;22.80;66.30;;;;;;4910639;29;20453;-79
2022/10/05 10:03:17;;;;;;;4.97;2.70;;;22.80;66.20;;;;;;4892754;29;20461;-79
2022/10/05 10:06:11;;;;;;;3.57;2.50;;;22.80;66.10;;;;;;4918392;29;20810;-81
2022/10/05 10:09:09;;;;;;;2.80;2.30;;;22.90;65.80;;;;;;4915402;29;20461;-80
2022/10/05 10:11:54;;;;;;;2.60;2.40;;;22.90;65.90;;;;;;4910267;29;20480;-80
2022/10/05 10:14:49;;;;;;;4.13;2.90;;;22.90;65.90;;;;;;4912948;29;20798;-81
2022/10/05 10:17:47;;;;;;;3.27;2.60;;;22.90;65.70;;;;;;4915266;29;20934;-80
2022/10/05 10:20:30;;;;;;;2.67;2.40;;;22.90;65.50;;;;;;4914826;29;20482;-81
2022/10/05 10:23:15;;;;;;;2.53;2.33;;;23.00;65.30;;;;;;4909089;29;20466;-80
2022/10/05 10:26:03;;;;;;;2.43;2.23;;;23.00;65.10;;;;;;4906399;29;20462;-80
2022/10/05 10:28:53;;;;;;;2.43;2.27;;;23.00;65.10;;;;;;4913820;29;20456;-81
2022/10/05 10:31:52;;;;;;;2.83;2.63;;;23.10;64.90;;;;;;4914278;29;20481;-80
2022/10/05 10:34:42;;;;;;;2.60;2.40;;;23.10;64.90;;;;;;4912094;29;20458;-78
2022/10/05 10:37:33;;;;;;;2.80;2.60;;;23.20;64.60;;;;;;4909699;29;20858;-80
2022/10/05 10:40:19;;;;;;;2.60;2.40;;;23.30;64.30;;;;;;4909140;29;20805;-78
2022/10/05 10:43:08;;;;;;;2.40;2.20;;;23.50;64.00;;;;;;4917819;29;20459;-80
2022/10/05 10:45:53;;;;;;;1.97;1.87;;;23.60;63.60;;;;;;4909348;29;20458;-80
2022/10/05 10:48:50;;;;;;;2.63;2.43;;;23.80;63.20;;;;;;4910153;29;20474;-80
2022/10/05 10:51:34;;;;;;;3.03;2.20;;;24.00;62.90;;;;;;4909925;29;20482;-79
2022/10/05 10:54:51;;;;;;;2.40;2.30;;;24.10;62.50;;;;;;4914866;29;20469;-80
2022/10/05 10:57:32;;;;;;;2.07;1.97;;;24.20;62.20;;;;;;4858059;29;20465;-79
2022/10/05 11:00:23;;;;;;;2.30;2.10;;;24.30;62.00;;;;;;4899140;29;20470;-80
2022/10/05 11:03:20;;;;;;;2.43;2.30;;;24.40;61.80;;;;;;4909627;29;20455;-80
2022/10/05 11:06:24;;;;;;;2.30;2.20;;;24.50;61.60;;;;;;4886128;29;20468;-80
2022/10/05 11:09:17;;;;;;;2.30;2.17;;;24.50;61.50;;;;;;4912363;29;20785;-79
2022/10/05 11:12:26;;;;;;;2.47;2.27;;;24.60;61.30;;;;;;4915368;29;20818;-80
2022/10/05 11:15:25;;;;;;;2.40;2.30;;;24.70;61.20;;;;;;4910507;29;20456;-79
2022/10/05 11:18:15;;;;;;;3.37;2.60;;;24.70;61.20;;;;;;4915045;29;20977;-75
2022/10/05 11:21:35;;;;;;;5.03;2.40;;;24.70;61.30;;;;;;4913411;29;20451;-75
2022/10/05 11:24:37;;;;;;;2.87;2.57;;;24.60;61.50;;;;;;4904503;29;20460;-75
2022/10/05 11:27:33;;;;;;;3.07;2.77;;;24.70;61.70;;;;;;4912454;29;20572;-76
2022/10/05 11:30:30;;;;;;;2.63;2.37;;;24.70;61.70;;;;;;4905226;29;20782;-78
2022/10/05 11:33:43;;;;;;;4.50;2.43;;;24.60;61.90;;;;;;4908654;29;20494;-77
2022/10/05 11:36:36;;;;;;;3.97;2.97;;;24.60;62.00;;;;;;4885292;29;20474;-78
2022/10/05 11:39:29;;;;;;;3.80;2.77;;;24.60;62.10;;;;;;4915087;29;20459;-81
2022/10/05 11:42:38;;;;;;;2.80;2.60;;;24.60;62.20;;;;;;4914808;29;20943;-82
2022/10/05 11:45:38;;;;;;;4.50;2.50;;;24.60;62.20;;;;;;4909920;29;20808;-80
2022/10/05 11:48:21;;;;;;;3.90;3.30;;;24.70;62.20;;;;;;4912864;29;20458;-79
2022/10/05 11:51:13;;;;;;;3.90;2.80;;;24.80;62.10;;;;;;4913562;29;20452;-77
2022/10/05 11:53:52;;;;;;;2.77;2.47;;;24.90;61.90;;;;;;4909587;29;20457;-78
2022/10/05 11:56:26;;;;;;;4.80;2.60;;;25.00;61.80;;;;;;4917061;29;20460;-78
2022/10/05 11:59:01;;;;;;;3.50;2.83;;;25.00;61.70;;;;;;4914160;29;20467;-79
2022/10/05 12:01:37;;;;;;;2.80;2.60;;;25.10;61.70;;;;;;4912676;29;20482;-80
2022/10/05 12:04:15;;;;;;;4.23;2.80;;;25.20;61.50;;;;;;4913179;29;20492;-78
2022/10/05 12:07:03;;;;;;;2.83;2.57;;;25.30;61.30;;;;;;4908928;29;20567;-79
2022/10/05 12:12:36;;;;;;;3.50;2.87;;;25.60;60.90;;;;;;4911811;29;20488;-79
2022/10/05 12:15:17;;;;;;;3.20;2.40;;;25.70;60.70;;;;;;4915396;29;21275;-77
2022/10/05 12:17:51;;;;;;;3.27;2.20;;;25.80;60.50;;;;;;4910908;29;20451;-77
2022/10/05 12:20:23;;;;;;;2.43;2.07;;;25.80;60.50;;;;;;4903185;29;20462;-77
2022/10/05 12:22:57;;;;;;;3.43;2.10;;;25.90;60.40;;;;;;4909329;29;20465;-78
2022/10/05 12:25:30;;;;;;;2.70;2.50;;;25.90;60.30;;;;;;4902843;29;20458;-77
2022/10/05 12:28:03;;;;;;;3.47;2.53;;;25.90;60.30;;;;;;4903765;29;20807;-77
2022/10/05 12:30:56;;;;;;;6.63;2.37;;;26.00;60.20;;;;;;4915422;29;20455;-78
2022/10/05 12:33:32;;;;;;;3.20;2.50;;;26.00;60.20;;;;;;4907214;29;20860;-78
2022/10/05 12:36:05;;;;;;;2.13;2.03;;;26.00;60.20;;;;;;4914859;29;20487;-77
2022/10/05 12:38:38;;;;;;;3.20;2.50;;;26.10;60.30;;;;;;4907966;29;20467;-77
2022/10/05 12:41:16;;;;;;;6.33;2.50;;;26.10;60.20;;;;;;4907154;29;20453;-77
2022/10/05 12:43:58;;;;;;;2.53;2.20;;;26.10;60.30;;;;;;4916322;29;20456;-77
2022/10/05 12:46:34;;;;;;;2.97;2.53;;;26.10;60.30;;;;;;4903025;29;20454;-77
2022/10/05 12:49:27;;;;;;;2.13;2.03;;;26.10;60.30;;;;;;4904276;29;20460;-77
2022/10/05 12:51:58;;;;;;;2.80;2.10;;;26.10;60.40;;;;;;4907564;29;20978;-79
2022/10/05 12:54:42;;;;;;;2.50;2.30;;;26.10;60.40;;;;;;4904139;29;20451;-78
2022/10/05 12:57:17;;;;;;;3.60;2.07;;;26.10;60.50;;;;;;4910537;29;20468;-78
2022/10/05 12:59:53;;;;;;;1.93;1.83;;;26.10;60.50;;;;;;4911550;29;20847;-77
2022/10/05 13:02:32;;;;;;;5.10;2.60;;;26.00;60.60;;;;;;4907484;29;20468;-77
2022/10/05 13:05:13;;;;;;;2.10;2.00;;;26.00;60.70;;;;;;4912150;29;20498;-76
2022/10/05 13:07:53;;;;;;;2.10;2.00;;;26.00;60.80;;;;;;4916327;29;20924;-81
2022/10/05 13:10:29;;;;;;;2.03;1.93;;;25.90;60.90;;;;;;4916287;29;20942;-73
2022/10/05 13:13:13;;;;;;;2.20;2.03;;;25.90;61.10;;;;;;4912461;29;20523;-71
2022/10/05 13:15:49;;;;;;;2.60;2.40;;;25.80;60.80;;;;;;4915347;29;20457;-71
2022/10/05 13:18:26;;;;;;;8.17;2.50;;;25.70;61.10;;;;;;4912452;29;20490;-72
2022/10/05 13:21:04;;;;;;;2.57;1.97;;;25.70;61.20;;;;;;4907735;29;20785;-72
2022/10/05 13:23:43;;;;;;;3.67;2.90;;;25.60;61.30;;;;;;4911940;29;20462;-72
2022/10/05 13:26:15;;;;;;;3.20;2.60;;;25.60;61.50;;;;;;4910186;29;20453;-73
2022/10/05 13:28:52;;;;;;;2.90;2.47;;;25.60;61.60;;;;;;4914813;29;20547;-72
2022/10/05 13:31:25;;;;;;;4.90;2.73;;;25.60;61.40;;;;;;4909565;29;20468;-69
2022/10/05 13:34:07;;;;;;;2.60;2.40;;;25.60;61.40;;;;;;4910405;29;20510;-70
2022/10/05 13:36:48;;;;;;;2.80;2.50;;;25.50;61.50;;;;;;4913072;29;20454;-71
2022/10/05 13:39:41;;;;;;;2.33;2.13;;;25.50;61.50;;;;;;4910209;29;21218;-71
2022/10/05 13:42:15;;;;;;;3.77;2.60;;;25.50;61.50;;;;;;4915740;29;20458;-70
2022/10/05 13:44:48;;;;;;;3.17;2.20;;;25.50;61.50;;;;;;4918153;29;20810;-71
2022/10/05 13:47:25;;;;;;;5.80;2.73;;;25.50;61.50;;;;;;4916878;29;20929;-71
2022/10/05 13:49:58;;;;;;;2.67;2.30;;;25.40;61.60;;;;;;4932093;29;20479;-71
2022/10/05 13:52:47;;;;;;;2.40;2.20;;;25.40;61.70;;;;;;4913450;29;20481;-71
2022/10/05 13:55:33;;;;;;;3.27;2.47;;;25.40;61.90;;;;;;4917635;29;20449;-71
2022/10/05 13:58:05;;;;;;;2.33;2.13;;;25.30;61.90;;;;;;4919060;29;20933;-77
2022/10/05 14:00:41;;;;;;;2.63;2.43;;;25.30;61.90;;;;;;4919025;29;20939;-78
2022/10/05 14:03:29;;;;;;;2.63;2.43;;;25.40;62.20;;;;;;4912172;29;20452;-78
2022/10/05 14:06:00;;;;;;;2.57;2.37;;;25.50;62.10;;;;;;4917167;29;20536;-80
2022/10/05 14:08:32;;;;;;;4.00;2.37;;;25.50;62.10;;;;;;4916453;29;20453;-76
2022/10/05 14:11:20;;;;;;;1.87;1.77;;;25.60;62.00;;;;;;4915657;29;20457;-76